Talmage, Utah
Current Conditions -  °F | °C
As of 7:19 AM on Saturday 20 Dec 2014 (Local Time) from KVEL Reporting Station
Overcast Overcast  
Wind Chill: 23°   Ceiling: 2100
Heat Index: 23°   Visibility: 7mi
Dew Point: 20°   Wind: 3mph
Humidity: 88%   Direction: 280°W
Pressure: 30.16"   Gusts: NA
Location:  40.34°N, 110.43°W
Report Text: KVEL 201419Z AUTO 28003KT 7SM BKN021 OVC070 M05/M07 A3016 RMK AO2 T10501067
Loading
Personal Weather Stations






























Interactive Weather Map New forecast layout! Learn more

10-Day Weather Forecast

Advertisements
Track Severe Weather on mobile